sensor_id;sensor_type;location;lat;lon;timestamp;temperature;humidity
24678;DHT22;12800;53.094;8.778;2023-04-03T00:02:17;5.00;69.30
24678;DHT22;12800;53.094;8.778;2023-04-03T00:04:42;4.90;69.30
24678;DHT22;12800;53.094;8.778;2023-04-03T00:07:08;4.90;69.60
24678;DHT22;12800;53.094;8.778;2023-04-03T00:09:33;4.90;69.60
24678;DHT22;12800;53.094;8.778;2023-04-03T00:11:59;4.80;69.60
24678;DHT22;12800;53.094;8.778;2023-04-03T00:14:26;4.80;69.70
24678;DHT22;12800;53.094;8.778;2023-04-03T00:16:52;4.80;69.80
24678;DHT22;12800;53.094;8.778;2023-04-03T00:19:18;4.80;69.90
24678;DHT22;12800;53.094;8.778;2023-04-03T00:21:44;4.70;69.90
24678;DHT22;12800;53.094;8.778;2023-04-03T00:24:09;4.70;70.10
24678;DHT22;12800;53.094;8.778;2023-04-03T00:26:35;4.70;70.30
24678;DHT22;12800;53.094;8.778;2023-04-03T00:29:01;4.70;70.40
24678;DHT22;12800;53.094;8.778;2023-04-03T00:31:26;4.60;70.40
24678;DHT22;12800;53.094;8.778;2023-04-03T00:33:52;4.60;70.40
24678;DHT22;12800;53.094;8.778;2023-04-03T00:36:17;4.60;70.60
24678;DHT22;12800;53.094;8.778;2023-04-03T00:38:43;4.60;70.70
24678;DHT22;12800;53.094;8.778;2023-04-03T00:41:09;4.50;70.70
24678;DHT22;12800;53.094;8.778;2023-04-03T00:43:35;4.60;70.80
24678;DHT22;12800;53.094;8.778;2023-04-03T00:46:01;4.50;70.80
24678;DHT22;12800;53.094;8.778;2023-04-03T00:50:52;4.50;70.80
24678;DHT22;12800;53.094;8.778;2023-04-03T00:53:23;4.50;70.70
24678;DHT22;12800;53.094;8.778;2023-04-03T00:55:51;4.40;70.70
24678;DHT22;12800;53.094;8.778;2023-04-03T00:58:20;4.40;70.90
24678;DHT22;12800;53.094;8.778;2023-04-03T01:00:52;4.30;70.90
24678;DHT22;12800;53.094;8.778;2023-04-03T01:03:21;4.30;70.90
24678;DHT22;12800;53.094;8.778;2023-04-03T01:05:47;4.30;71.20
24678;DHT22;12800;53.094;8.778;2023-04-03T01:08:13;4.30;71.20
24678;DHT22;12800;53.094;8.778;2023-04-03T01:10:38;4.30;71.30
24678;DHT22;12800;53.094;8.778;2023-04-03T01:13:27;4.30;71.30
24678;DHT22;12800;53.094;8.778;2023-04-03T01:15:53;4.20;71.30
24678;DHT22;12800;53.094;8.778;2023-04-03T01:18:19;4.20;71.50
24678;DHT22;12800;53.094;8.778;2023-04-03T01:26:20;4.10;71.80
24678;DHT22;12800;53.094;8.778;2023-04-03T01:28:46;4.10;71.90
24678;DHT22;12800;53.094;8.778;2023-04-03T01:33:40;4.00;72.00
24678;DHT22;12800;53.094;8.778;2023-04-03T01:36:06;3.90;71.90
24678;DHT22;12800;53.094;8.778;2023-04-03T01:38:32;3.90;72.10
24678;DHT22;12800;53.094;8.778;2023-04-03T01:40:58;3.90;72.20
24678;DHT22;12800;53.094;8.778;2023-04-03T01:43:23;3.90;72.20
24678;DHT22;12800;53.094;8.778;2023-04-03T01:45:49;3.90;73.10
24678;DHT22;12800;53.094;8.778;2023-04-03T01:48:16;3.80;72.20
24678;DHT22;12800;53.094;8.778;2023-04-03T01:50:41;3.80;72.40
24678;DHT22;12800;53.094;8.778;2023-04-03T01:53:07;3.80;72.60
24678;DHT22;12800;53.094;8.778;2023-04-03T01:55:33;3.80;72.50
24678;DHT22;12800;53.094;8.778;2023-04-03T01:57:58;3.70;72.60
24678;DHT22;12800;53.094;8.778;2023-04-03T02:00:24;3.70;72.70
24678;DHT22;12800;53.094;8.778;2023-04-03T02:02:50;3.60;72.70
24678;DHT22;12800;53.094;8.778;2023-04-03T02:05:16;3.60;72.70
24678;DHT22;12800;53.094;8.778;2023-04-03T02:07:41;3.60;72.90
24678;DHT22;12800;53.094;8.778;2023-04-03T02:10:07;3.60;73.00
24678;DHT22;12800;53.094;8.778;2023-04-03T02:12:33;3.50;73.00
24678;DHT22;12800;53.094;8.778;2023-04-03T02:14:58;3.50;73.10
24678;DHT22;12800;53.094;8.778;2023-04-03T02:17:24;3.50;73.20
24678;DHT22;12800;53.094;8.778;2023-04-03T02:19:50;3.50;73.10
24678;DHT22;12800;53.094;8.778;2023-04-03T02:22:15;3.50;73.50
24678;DHT22;12800;53.094;8.778;2023-04-03T02:24:41;3.50;73.40
24678;DHT22;12800;53.094;8.778;2023-04-03T02:27:07;3.50;73.30
24678;DHT22;12800;53.094;8.778;2023-04-03T02:29:32;3.50;73.40
24678;DHT22;12800;53.094;8.778;2023-04-03T02:31:58;3.50;73.50
24678;DHT22;12800;53.094;8.778;2023-04-03T02:34:24;3.50;73.50
24678;DHT22;12800;53.094;8.778;2023-04-03T02:36:50;3.40;73.40
24678;DHT22;12800;53.094;8.778;2023-04-03T02:39:15;3.40;73.60
24678;DHT22;12800;53.094;8.778;2023-04-03T02:41:41;3.40;73.70
24678;DHT22;12800;53.094;8.778;2023-04-03T02:44:09;3.40;73.70
24678;DHT22;12800;53.094;8.778;2023-04-03T02:46:35;3.30;73.80
24678;DHT22;12800;53.094;8.778;2023-04-03T02:49:01;3.30;73.80
24678;DHT22;12800;53.094;8.778;2023-04-03T02:51:27;3.30;73.90
24678;DHT22;12800;53.094;8.778;2023-04-03T02:53:52;3.30;74.00
24678;DHT22;12800;53.094;8.778;2023-04-03T02:56:18;3.30;74.10
24678;DHT22;12800;53.094;8.778;2023-04-03T02:58:44;3.30;74.00
24678;DHT22;12800;53.094;8.778;2023-04-03T03:01:10;3.30;74.10
24678;DHT22;12800;53.094;8.778;2023-04-03T03:03:36;3.30;74.20
24678;DHT22;12800;53.094;8.778;2023-04-03T03:06:05;3.30;74.30
24678;DHT22;12800;53.094;8.778;2023-04-03T03:08:31;3.30;74.30
24678;DHT22;12800;53.094;8.778;2023-04-03T03:10:57;3.30;74.30
24678;DHT22;12800;53.094;8.778;2023-04-03T03:13:23;3.30;74.30
24678;DHT22;12800;53.094;8.778;2023-04-03T03:15:49;3.30;74.50
24678;DHT22;12800;53.094;8.778;2023-04-03T03:18:14;3.30;74.40
24678;DHT22;12800;53.094;8.778;2023-04-03T03:20:40;3.20;74.40
24678;DHT22;12800;53.094;8.778;2023-04-03T03:23:06;3.20;74.50
24678;DHT22;12800;53.094;8.778;2023-04-03T03:25:31;3.20;74.40
24678;DHT22;12800;53.094;8.778;2023-04-03T03:27:57;3.20;74.50
24678;DHT22;12800;53.094;8.778;2023-04-03T03:30:23;3.20;74.60
24678;DHT22;12800;53.094;8.778;2023-04-03T03:32:48;3.20;74.70
24678;DHT22;12800;53.094;8.778;2023-04-03T03:35:14;3.20;74.70
24678;DHT22;12800;53.094;8.778;2023-04-03T03:37:40;3.10;74.70
24678;DHT22;12800;53.094;8.778;2023-04-03T03:40:06;3.10;74.80
24678;DHT22;12800;53.094;8.778;2023-04-03T03:42:32;3.10;74.80
24678;DHT22;12800;53.094;8.778;2023-04-03T03:44:57;3.10;74.80
24678;DHT22;12800;53.094;8.778;2023-04-03T03:47:23;3.10;74.80
24678;DHT22;12800;53.094;8.778;2023-04-03T03:49:48;3.10;74.80
24678;DHT22;12800;53.094;8.778;2023-04-03T03:52:14;3.10;74.80
24678;DHT22;12800;53.094;8.778;2023-04-03T03:54:40;3.10;74.80
24678;DHT22;12800;53.094;8.778;2023-04-03T03:57:05;3.10;74.80
24678;DHT22;12800;53.094;8.778;2023-04-03T03:59:31;3.10;74.90
24678;DHT22;12800;53.094;8.778;2023-04-03T04:01:56;3.00;74.80
24678;DHT22;12800;53.094;8.778;2023-04-03T04:04:22;3.00;75.00
24678;DHT22;12800;53.094;8.778;2023-04-03T04:06:48;3.00;75.20
24678;DHT22;12800;53.094;8.778;2023-04-03T04:09:13;3.00;75.20
24678;DHT22;12800;53.094;8.778;2023-04-03T04:11:39;3.00;75.20
24678;DHT22;12800;53.094;8.778;2023-04-03T04:14:06;2.90;75.20
24678;DHT22;12800;53.094;8.778;2023-04-03T04:16:32;2.90;75.30
24678;DHT22;12800;53.094;8.778;2023-04-03T04:18:58;2.90;75.30
24678;DHT22;12800;53.094;8.778;2023-04-03T04:21:23;2.90;75.40
24678;DHT22;12800;53.094;8.778;2023-04-03T04:23:49;2.90;75.30
24678;DHT22;12800;53.094;8.778;2023-04-03T04:26:14;2.90;75.30
24678;DHT22;12800;53.094;8.778;2023-04-03T04:28:40;2.90;75.40
24678;DHT22;12800;53.094;8.778;2023-04-03T04:31:06;2.80;75.30
24678;DHT22;12800;53.094;8.778;2023-04-03T04:33:31;2.80;75.50
24678;DHT22;12800;53.094;8.778;2023-04-03T04:35:57;2.80;75.60
24678;DHT22;12800;53.094;8.778;2023-04-03T04:38:23;2.80;75.80
24678;DHT22;12800;53.094;8.778;2023-04-03T04:40:48;2.80;75.80
24678;DHT22;12800;53.094;8.778;2023-04-03T04:43:14;2.80;75.80
24678;DHT22;12800;53.094;8.778;2023-04-03T04:45:41;2.80;75.90
24678;DHT22;12800;53.094;8.778;2023-04-03T04:48:07;2.80;75.90
24678;DHT22;12800;53.094;8.778;2023-04-03T04:50:32;2.80;75.90
24678;DHT22;12800;53.094;8.778;2023-04-03T04:52:58;2.80;75.90
24678;DHT22;12800;53.094;8.778;2023-04-03T04:55:23;2.70;75.80
24678;DHT22;12800;53.094;8.778;2023-04-03T04:57:49;2.80;76.00
24678;DHT22;12800;53.094;8.778;2023-04-03T05:00:15;2.70;76.00
24678;DHT22;12800;53.094;8.778;2023-04-03T05:02:41;2.80;76.10
24678;DHT22;12800;53.094;8.778;2023-04-03T05:05:07;2.70;76.10
24678;DHT22;12800;53.094;8.778;2023-04-03T05:07:33;2.80;76.20
24678;DHT22;12800;53.094;8.778;2023-04-03T05:10:01;2.80;76.10
24678;DHT22;12800;53.094;8.778;2023-04-03T05:12:28;2.80;76.00
24678;DHT22;12800;53.094;8.778;2023-04-03T05:14:53;2.80;76.00
24678;DHT22;12800;53.094;8.778;2023-04-03T05:17:19;2.80;76.10
24678;DHT22;12800;53.094;8.778;2023-04-03T05:19:45;2.80;76.10
24678;DHT22;12800;53.094;8.778;2023-04-03T05:22:11;2.80;76.00
24678;DHT22;12800;53.094;8.778;2023-04-03T05:24:36;2.80;76.00
24678;DHT22;12800;53.094;8.778;2023-04-03T05:27:02;2.90;76.10
24678;DHT22;12800;53.094;8.778;2023-04-03T05:29:28;2.80;76.10
24678;DHT22;12800;53.094;8.778;2023-04-03T05:31:53;2.90;76.10
24678;DHT22;12800;53.094;8.778;2023-04-03T05:34:19;2.90;76.20
24678;DHT22;12800;53.094;8.778;2023-04-03T05:36:45;3.00;76.10
24678;DHT22;12800;53.094;8.778;2023-04-03T05:39:11;3.00;76.00
24678;DHT22;12800;53.094;8.778;2023-04-03T05:41:36;3.00;75.90
24678;DHT22;12800;53.094;8.778;2023-04-03T05:44:02;3.00;75.90
24678;DHT22;12800;53.094;8.778;2023-04-03T05:46:27;3.00;75.90
24678;DHT22;12800;53.094;8.778;2023-04-03T05:48:53;3.00;75.90
24678;DHT22;12800;53.094;8.778;2023-04-03T05:51:22;3.10;75.90
24678;DHT22;12800;53.094;8.778;2023-04-03T05:53:49;3.10;75.80
24678;DHT22;12800;53.094;8.778;2023-04-03T05:56:17;3.10;75.80
24678;DHT22;12800;53.094;8.778;2023-04-03T05:58:43;3.20;75.80
24678;DHT22;12800;53.094;8.778;2023-04-03T06:01:09;3.20;75.70
24678;DHT22;12800;53.094;8.778;2023-04-03T06:03:35;3.20;75.70
24678;DHT22;12800;53.094;8.778;2023-04-03T06:06:03;3.20;75.70
24678;DHT22;12800;53.094;8.778;2023-04-03T06:08:29;3.20;75.70
24678;DHT22;12800;53.094;8.778;2023-04-03T06:10:54;3.20;75.70
24678;DHT22;12800;53.094;8.778;2023-04-03T06:13:21;3.30;75.80
24678;DHT22;12800;53.094;8.778;2023-04-03T06:15:47;3.30;75.70
24678;DHT22;12800;53.094;8.778;2023-04-03T06:18:14;3.30;75.70
24678;DHT22;12800;53.094;8.778;2023-04-03T06:20:39;3.40;75.60
24678;DHT22;12800;53.094;8.778;2023-04-03T06:23:05;3.40;75.50
24678;DHT22;12800;53.094;8.778;2023-04-03T06:25:31;3.50;75.60
24678;DHT22;12800;53.094;8.778;2023-04-03T06:27:57;3.60;75.40
24678;DHT22;12800;53.094;8.778;2023-04-03T06:30:23;3.60;75.20
24678;DHT22;12800;53.094;8.778;2023-04-03T06:32:48;3.60;75.10
24678;DHT22;12800;53.094;8.778;2023-04-03T06:35:14;3.70;75.20
24678;DHT22;12800;53.094;8.778;2023-04-03T06:37:40;3.70;75.00
24678;DHT22;12800;53.094;8.778;2023-04-03T06:40:06;3.80;75.00
24678;DHT22;12800;53.094;8.778;2023-04-03T06:42:32;3.80;74.80
24678;DHT22;12800;53.094;8.778;2023-04-03T06:44:58;3.90;74.90
24678;DHT22;12800;53.094;8.778;2023-04-03T06:47:23;3.90;74.70
24678;DHT22;12800;53.094;8.778;2023-04-03T06:49:49;4.00;74.40
24678;DHT22;12800;53.094;8.778;2023-04-03T06:52:14;4.00;74.40
24678;DHT22;12800;53.094;8.778;2023-04-03T06:54:40;4.10;74.40
24678;DHT22;12800;53.094;8.778;2023-04-03T06:57:06;4.10;74.30
24678;DHT22;12800;53.094;8.778;2023-04-03T06:59:32;4.20;74.10
24678;DHT22;12800;53.094;8.778;2023-04-03T07:01:58;4.20;74.00
24678;DHT22;12800;53.094;8.778;2023-04-03T07:04:25;4.30;74.00
24678;DHT22;12800;53.094;8.778;2023-04-03T07:06:50;4.30;73.80
24678;DHT22;12800;53.094;8.778;2023-04-03T07:09:17;4.40;73.80
24678;DHT22;12800;53.094;8.778;2023-04-03T07:11:44;4.40;73.70
24678;DHT22;12800;53.094;8.778;2023-04-03T07:14:09;4.50;73.70
24678;DHT22;12800;53.094;8.778;2023-04-03T07:16:35;4.50;73.70
24678;DHT22;12800;53.094;8.778;2023-04-03T07:19:02;4.60;73.70
24678;DHT22;12800;53.094;8.778;2023-04-03T07:21:28;4.70;73.50
24678;DHT22;12800;53.094;8.778;2023-04-03T07:23:54;4.70;73.30
24678;DHT22;12800;53.094;8.778;2023-04-03T07:26:20;4.80;73.20
24678;DHT22;12800;53.094;8.778;2023-04-03T07:28:47;4.90;73.00
24678;DHT22;12800;53.094;8.778;2023-04-03T07:31:15;4.90;72.60
24678;DHT22;12800;53.094;8.778;2023-04-03T07:33:42;5.00;72.30
24678;DHT22;12800;53.094;8.778;2023-04-03T07:36:09;5.10;72.20
24678;DHT22;12800;53.094;8.778;2023-04-03T07:38:36;5.10;72.00
24678;DHT22;12800;53.094;8.778;2023-04-03T07:41:03;5.20;71.60
24678;DHT22;12800;53.094;8.778;2023-04-03T07:43:29;5.20;71.30
24678;DHT22;12800;53.094;8.778;2023-04-03T07:45:54;5.30;70.80
24678;DHT22;12800;53.094;8.778;2023-04-03T07:48:22;5.30;70.50
24678;DHT22;12800;53.094;8.778;2023-04-03T07:50:48;5.40;70.00
24678;DHT22;12800;53.094;8.778;2023-04-03T07:53:14;5.50;69.70
24678;DHT22;12800;53.094;8.778;2023-04-03T07:55:41;5.50;69.40
24678;DHT22;12800;53.094;8.778;2023-04-03T07:58:15;5.60;68.90
24678;DHT22;12800;53.094;8.778;2023-04-03T08:00:41;5.70;68.40
24678;DHT22;12800;53.094;8.778;2023-04-03T08:03:09;5.70;68.00
24678;DHT22;12800;53.094;8.778;2023-04-03T08:05:40;5.80;67.20
24678;DHT22;12800;53.094;8.778;2023-04-03T08:08:07;5.80;66.70
24678;DHT22;12800;53.094;8.778;2023-04-03T08:10:33;5.90;66.60
24678;DHT22;12800;53.094;8.778;2023-04-03T08:13:00;5.90;65.90
24678;DHT22;12800;53.094;8.778;2023-04-03T08:15:25;6.00;65.40
24678;DHT22;12800;53.094;8.778;2023-04-03T08:17:52;6.10;65.10
24678;DHT22;12800;53.094;8.778;2023-04-03T08:20:18;6.10;64.80
24678;DHT22;12800;53.094;8.778;2023-04-03T08:22:44;6.10;64.40
24678;DHT22;12800;53.094;8.778;2023-04-03T08:25:09;6.20;64.00
24678;DHT22;12800;53.094;8.778;2023-04-03T08:27:35;6.20;63.10
24678;DHT22;12800;53.094;8.778;2023-04-03T08:30:01;6.30;62.40
24678;DHT22;12800;53.094;8.778;2023-04-03T08:32:27;6.30;62.30
24678;DHT22;12800;53.094;8.778;2023-04-03T08:34:52;6.40;62.10
24678;DHT22;12800;53.094;8.778;2023-04-03T08:37:18;6.40;61.40
24678;DHT22;12800;53.094;8.778;2023-04-03T08:39:45;6.50;61.10
24678;DHT22;12800;53.094;8.778;2023-04-03T08:47:40;6.60;60.40
24678;DHT22;12800;53.094;8.778;2023-04-03T08:50:14;6.70;60.40
24678;DHT22;12800;53.094;8.778;2023-04-03T08:52:47;6.70;60.00
24678;DHT22;12800;53.094;8.778;2023-04-03T08:55:24;6.80;59.90
24678;DHT22;12800;53.094;8.778;2023-04-03T08:57:58;6.90;59.40
24678;DHT22;12800;53.094;8.778;2023-04-03T09:00:28;6.90;58.70
24678;DHT22;12800;53.094;8.778;2023-04-03T09:02:56;7.00;57.90
24678;DHT22;12800;53.094;8.778;2023-04-03T09:10:49;7.10;56.50
24678;DHT22;12800;53.094;8.778;2023-04-03T09:13:44;7.20;56.10
24678;DHT22;12800;53.094;8.778;2023-04-03T09:16:59;7.20;55.60
24678;DHT22;12800;53.094;8.778;2023-04-03T09:21:57;7.30;54.40
24678;DHT22;12800;53.094;8.778;2023-04-03T09:24:24;7.40;53.60
24678;DHT22;12800;53.094;8.778;2023-04-03T09:27:11;7.50;53.60
24678;DHT22;12800;53.094;8.778;2023-04-03T09:29:40;7.50;53.10
24678;DHT22;12800;53.094;8.778;2023-04-03T09:34:53;7.60;53.40
24678;DHT22;12800;53.094;8.778;2023-04-03T09:37:40;7.60;53.70
24678;DHT22;12800;53.094;8.778;2023-04-03T09:42:58;7.60;52.60
24678;DHT22;12800;53.094;8.778;2023-04-03T09:45:27;7.60;53.20
24678;DHT22;12800;53.094;8.778;2023-04-03T09:56:25;7.70;53.40
24678;DHT22;12800;53.094;8.778;2023-04-03T10:01:38;7.70;52.00
24678;DHT22;12800;53.094;8.778;2023-04-03T10:04:15;7.70;51.60
24678;DHT22;12800;53.094;8.778;2023-04-03T10:09:22;7.80;51.80
24678;DHT22;12800;53.094;8.778;2023-04-03T10:14:28;7.90;52.30
24678;DHT22;12800;53.094;8.778;2023-04-03T10:19:43;8.00;52.30
24678;DHT22;12800;53.094;8.778;2023-04-03T10:28:04;8.00;51.40
24678;DHT22;12800;53.094;8.778;2023-04-03T10:47:27;8.40;51.40
24678;DHT22;12800;53.094;8.778;2023-04-03T10:52:27;8.40;50.90
24678;DHT22;12800;53.094;8.778;2023-04-03T10:55:14;8.50;50.90
24678;DHT22;12800;53.094;8.778;2023-04-03T10:57:42;8.50;50.90
24678;DHT22;12800;53.094;8.778;2023-04-03T11:03:00;8.60;50.40
24678;DHT22;12800;53.094;8.778;2023-04-03T11:05:39;8.70;50.60
24678;DHT22;12800;53.094;8.778;2023-04-03T11:08:15;8.70;50.40
24678;DHT22;12800;53.094;8.778;2023-04-03T11:10:48;8.70;50.10
24678;DHT22;12800;53.094;8.778;2023-04-03T11:13:26;8.60;50.00
24678;DHT22;12800;53.094;8.778;2023-04-03T11:15:54;8.70;50.50
24678;DHT22;12800;53.094;8.778;2023-04-03T11:18:48;8.70;50.70
24678;DHT22;12800;53.094;8.778;2023-04-03T11:21:21;8.80;50.60
24678;DHT22;12800;53.094;8.778;2023-04-03T11:23:51;8.90;50.90
24678;DHT22;12800;53.094;8.778;2023-04-03T11:26:19;9.00;50.70
24678;DHT22;12800;53.094;8.778;2023-04-03T11:28:46;9.00;50.50
24678;DHT22;12800;53.094;8.778;2023-04-03T11:31:24;9.00;50.10
24678;DHT22;12800;53.094;8.778;2023-04-03T11:36:59;9.00;49.60
24678;DHT22;12800;53.094;8.778;2023-04-03T11:39:33;9.00;49.70
24678;DHT22;12800;53.094;8.778;2023-04-03T11:42:53;9.10;49.70
24678;DHT22;12800;53.094;8.778;2023-04-03T12:16:26;9.70;49.20
24678;DHT22;12800;53.094;8.778;2023-04-03T12:21:20;9.80;49.20
24678;DHT22;12800;53.094;8.778;2023-04-03T12:30:05;9.80;48.70
24678;DHT22;12800;53.094;8.778;2023-04-03T12:35:35;9.80;48.70
24678;DHT22;12800;53.094;8.778;2023-04-03T12:46:18;10.00;49.30
24678;DHT22;12800;53.094;8.778;2023-04-03T12:54:02;10.40;48.50
24678;DHT22;12800;53.094;8.778;2023-04-03T12:56:32;10.50;48.10
24678;DHT22;12800;53.094;8.778;2023-04-03T12:59:16;10.50;48.30
24678;DHT22;12800;53.094;8.778;2023-04-03T13:01:44;10.50;47.80
24678;DHT22;12800;53.094;8.778;2023-04-03T13:04:18;10.40;47.90
24678;DHT22;12800;53.094;8.778;2023-04-03T13:06:44;10.40;48.30
24678;DHT22;12800;53.094;8.778;2023-04-03T13:09:39;10.40;48.40
24678;DHT22;12800;53.094;8.778;2023-04-03T13:12:16;10.50;48.50
24678;DHT22;12800;53.094;8.778;2023-04-03T13:14:55;10.60;48.50
24678;DHT22;12800;53.094;8.778;2023-04-03T13:17:22;10.80;48.50
24678;DHT22;12800;53.094;8.778;2023-04-03T13:19:48;10.90;48.40
24678;DHT22;12800;53.094;8.778;2023-04-03T13:24:43;11.20;47.70
24678;DHT22;12800;53.094;8.778;2023-04-03T13:27:11;11.30;47.50
24678;DHT22;12800;53.094;8.778;2023-04-03T13:29:38;11.40;47.10
24678;DHT22;12800;53.094;8.778;2023-04-03T13:32:06;11.40;47.90
24678;DHT22;12800;53.094;8.778;2023-04-03T13:34:42;11.50;47.20
24678;DHT22;12800;53.094;8.778;2023-04-03T13:39:45;11.30;46.30
24678;DHT22;12800;53.094;8.778;2023-04-03T13:42:22;11.20;46.30
24678;DHT22;12800;53.094;8.778;2023-04-03T13:44:49;11.20;46.40
24678;DHT22;12800;53.094;8.778;2023-04-03T13:47:39;11.20;46.60
24678;DHT22;12800;53.094;8.778;2023-04-03T13:52:48;11.40;47.20
24678;DHT22;12800;53.094;8.778;2023-04-03T13:58:32;11.30;46.90
24678;DHT22;12800;53.094;8.778;2023-04-03T14:00:49;11.30;47.00
24678;DHT22;12800;53.094;8.778;2023-04-03T14:03:26;11.40;47.20
24678;DHT22;12800;53.094;8.778;2023-04-03T14:05:54;11.40;47.00
24678;DHT22;12800;53.094;8.778;2023-04-03T14:08:20;11.50;46.90
24678;DHT22;12800;53.094;8.778;2023-04-03T14:10:47;11.60;46.60
24678;DHT22;12800;53.094;8.778;2023-04-03T14:13:17;11.70;45.90
24678;DHT22;12800;53.094;8.778;2023-04-03T14:15:43;11.90;46.00
24678;DHT22;12800;53.094;8.778;2023-04-03T14:18:15;12.00;46.10
24678;DHT22;12800;53.094;8.778;2023-04-03T14:20:41;12.20;46.00
24678;DHT22;12800;53.094;8.778;2023-04-03T14:23:07;12.40;45.70
24678;DHT22;12800;53.094;8.778;2023-04-03T14:25:33;12.50;45.60
24678;DHT22;12800;53.094;8.778;2023-04-03T14:27:59;12.70;45.70
24678;DHT22;12800;53.094;8.778;2023-04-03T14:30:32;12.80;45.60
24678;DHT22;12800;53.094;8.778;2023-04-03T14:32:58;12.80;45.20
24678;DHT22;12800;53.094;8.778;2023-04-03T14:35:24;12.70;45.20
24678;DHT22;12800;53.094;8.778;2023-04-03T14:37:51;12.50;45.20
24678;DHT22;12800;53.094;8.778;2023-04-03T14:40:26;12.20;45.00
24678;DHT22;12800;53.094;8.778;2023-04-03T14:42:52;11.90;45.30
24678;DHT22;12800;53.094;8.778;2023-04-03T14:45:21;11.80;46.40
24678;DHT22;12800;53.094;8.778;2023-04-03T14:47:49;11.80;45.90
24678;DHT22;12800;53.094;8.778;2023-04-03T14:50:19;11.90;46.10
24678;DHT22;12800;53.094;8.778;2023-04-03T14:52:47;12.10;45.90
24678;DHT22;12800;53.094;8.778;2023-04-03T14:55:16;12.30;45.80
24678;DHT22;12800;53.094;8.778;2023-04-03T14:57:42;12.50;45.20
24678;DHT22;12800;53.094;8.778;2023-04-03T15:00:14;12.70;45.60
24678;DHT22;12800;53.094;8.778;2023-04-03T15:02:40;12.80;44.60
24678;DHT22;12800;53.094;8.778;2023-04-03T15:05:08;13.00;44.20
24678;DHT22;12800;53.094;8.778;2023-04-03T15:07:37;12.90;44.00
24678;DHT22;12800;53.094;8.778;2023-04-03T15:12:39;13.10;43.80
24678;DHT22;12800;53.094;8.778;2023-04-03T15:15:05;12.90;43.00
24678;DHT22;12800;53.094;8.778;2023-04-03T15:17:31;12.60;42.80
24678;DHT22;12800;53.094;8.778;2023-04-03T15:19:58;12.30;43.30
24678;DHT22;12800;53.094;8.778;2023-04-03T15:22:24;12.30;44.00
24678;DHT22;12800;53.094;8.778;2023-04-03T15:24:49;12.50;45.20
24678;DHT22;12800;53.094;8.778;2023-04-03T15:27:15;13.00;44.40
24678;DHT22;12800;53.094;8.778;2023-04-03T15:29:43;13.60;43.60
24678;DHT22;12800;53.094;8.778;2023-04-03T15:32:09;14.20;43.10
24678;DHT22;12800;53.094;8.778;2023-04-03T15:34:36;14.80;42.60
24678;DHT22;12800;53.094;8.778;2023-04-03T15:37:01;15.20;42.20
24678;DHT22;12800;53.094;8.778;2023-04-03T15:39:27;15.40;41.40
24678;DHT22;12800;53.094;8.778;2023-04-03T15:41:54;15.10;41.10
24678;DHT22;12800;53.094;8.778;2023-04-03T15:44:20;14.60;41.30
24678;DHT22;12800;53.094;8.778;2023-04-03T15:46:46;14.00;41.60
24678;DHT22;12800;53.094;8.778;2023-04-03T15:49:14;13.50;42.10
24678;DHT22;12800;53.094;8.778;2023-04-03T15:51:40;13.10;42.20
24678;DHT22;12800;53.094;8.778;2023-04-03T15:54:06;12.80;42.80
24678;DHT22;12800;53.094;8.778;2023-04-03T15:56:31;12.80;43.10
24678;DHT22;12800;53.094;8.778;2023-04-03T15:58:57;13.20;43.60
24678;DHT22;12800;53.094;8.778;2023-04-03T16:01:22;13.60;43.20
24678;DHT22;12800;53.094;8.778;2023-04-03T16:03:48;13.90;43.00
24678;DHT22;12800;53.094;8.778;2023-04-03T16:06:17;14.20;42.20
24678;DHT22;12800;53.094;8.778;2023-04-03T16:08:44;14.40;41.60
24678;DHT22;12800;53.094;8.778;2023-04-03T16:11:11;14.30;40.90
24678;DHT22;12800;53.094;8.778;2023-04-03T16:13:37;14.20;41.00
24678;DHT22;12800;53.094;8.778;2023-04-03T16:16:03;14.00;40.90
24678;DHT22;12800;53.094;8.778;2023-04-03T16:18:30;13.90;41.00
24678;DHT22;12800;53.094;8.778;2023-04-03T16:20:56;13.70;41.10
24678;DHT22;12800;53.094;8.778;2023-04-03T16:23:23;13.40;41.10
24678;DHT22;12800;53.094;8.778;2023-04-03T16:25:49;13.20;41.30
24678;DHT22;12800;53.094;8.778;2023-04-03T16:28:16;13.00;41.70
24678;DHT22;12800;53.094;8.778;2023-04-03T16:30:46;12.90;41.90
24678;DHT22;12800;53.094;8.778;2023-04-03T16:33:12;12.90;42.10
24678;DHT22;12800;53.094;8.778;2023-04-03T16:35:38;12.80;42.30
24678;DHT22;12800;53.094;8.778;2023-04-03T16:38:04;12.60;42.50
24678;DHT22;12800;53.094;8.778;2023-04-03T16:40:30;12.40;42.50
24678;DHT22;12800;53.094;8.778;2023-04-03T16:42:56;12.20;42.80
24678;DHT22;12800;53.094;8.778;2023-04-03T16:45:22;12.00;42.90
24678;DHT22;12800;53.094;8.778;2023-04-03T16:47:48;11.70;43.10
24678;DHT22;12800;53.094;8.778;2023-04-03T16:50:14;11.60;43.30
24678;DHT22;12800;53.094;8.778;2023-04-03T16:52:39;11.30;43.60
24678;DHT22;12800;53.094;8.778;2023-04-03T16:55:06;11.10;44.10
24678;DHT22;12800;53.094;8.778;2023-04-03T16:57:32;10.90;44.50
24678;DHT22;12800;53.094;8.778;2023-04-03T16:59:57;10.80;44.90
24678;DHT22;12800;53.094;8.778;2023-04-03T17:02:24;10.70;45.00
24678;DHT22;12800;53.094;8.778;2023-04-03T17:04:50;10.60;45.30
24678;DHT22;12800;53.094;8.778;2023-04-03T17:07:21;10.40;45.60
24678;DHT22;12800;53.094;8.778;2023-04-03T17:09:47;10.40;45.90
24678;DHT22;12800;53.094;8.778;2023-04-03T17:12:13;10.30;45.80
24678;DHT22;12800;53.094;8.778;2023-04-03T17:14:39;10.20;46.00
24678;DHT22;12800;53.094;8.778;2023-04-03T17:17:07;10.10;46.20
24678;DHT22;12800;53.094;8.778;2023-04-03T17:19:34;10.10;46.40
24678;DHT22;12800;53.094;8.778;2023-04-03T17:22:00;10.00;46.80
24678;DHT22;12800;53.094;8.778;2023-04-03T17:24:27;10.00;47.50
24678;DHT22;12800;53.094;8.778;2023-04-03T17:26:52;9.90;47.90
24678;DHT22;12800;53.094;8.778;2023-04-03T17:29:18;9.80;48.30
24678;DHT22;12800;53.094;8.778;2023-04-03T17:31:44;9.70;48.90
24678;DHT22;12800;53.094;8.778;2023-04-03T17:34:10;9.70;48.50
24678;DHT22;12800;53.094;8.778;2023-04-03T17:36:39;9.60;48.30
24678;DHT22;12800;53.094;8.778;2023-04-03T17:39:06;9.50;48.40
24678;DHT22;12800;53.094;8.778;2023-04-03T17:41:32;9.50;47.60
24678;DHT22;12800;53.094;8.778;2023-04-03T17:43:58;9.40;47.60
24678;DHT22;12800;53.094;8.778;2023-04-03T17:46:24;9.40;47.50
24678;DHT22;12800;53.094;8.778;2023-04-03T17:48:50;9.30;47.60
24678;DHT22;12800;53.094;8.778;2023-04-03T17:51:21;9.30;47.60
24678;DHT22;12800;53.094;8.778;2023-04-03T17:53:48;9.20;47.60
24678;DHT22;12800;53.094;8.778;2023-04-03T17:56:17;9.20;47.70
24678;DHT22;12800;53.094;8.778;2023-04-03T17:58:43;9.20;47.90
24678;DHT22;12800;53.094;8.778;2023-04-03T18:01:18;9.20;48.10
24678;DHT22;12800;53.094;8.778;2023-04-03T18:03:45;9.10;48.10
24678;DHT22;12800;53.094;8.778;2023-04-03T18:06:14;9.10;48.50
24678;DHT22;12800;53.094;8.778;2023-04-03T18:08:43;9.10;48.80
24678;DHT22;12800;53.094;8.778;2023-04-03T18:11:09;9.10;49.60
24678;DHT22;12800;53.094;8.778;2023-04-03T18:13:35;9.00;49.50
24678;DHT22;12800;53.094;8.778;2023-04-03T18:16:11;9.00;49.10